Gevgelija, Macedonia
Current Conditions -  °F | °C
As of 5:20 AM on Saturday 01 Nov 2014 (Local Time) from LGTS Reporting Station
Few Clouds Few Clouds  
Wind Chill: 38°   Ceiling: Unl
Heat Index: 41°   Visibility: 6mi
Dew Point: 39°   Wind: 5mph
Humidity: 93%   Direction: 110°ESE
Pressure: 30.21"   Gusts: NA
Location:  41.15°N, 22.51°E
Report Text: LGTS 010320Z 11004KT 9999 FEW010 05/04 Q1023 NOSIG
Loading
Personal Weather Stations






























Interactive Weather Map
Tropical Storm Tracking
New forecast layout! Learn more

10-Day Weather Forecast

Advertisements
Track Severe Weather on mobile